Time;durP1;ratioP1;P1;durP2;ratioP2;P2;SDS_P1;SDS_P2;PMS_P1;PMS_P2;Temp;Humidity;BMP_temperature;BMP_pressure;BME280_temperature;BME280_humidity;BME280_pressure;Samples;Min_cycle;Max_cycle;Signal;HPM_P1;HPM_P2
2023/11/14 00:00:41;;;;;;;;;;;;;;;7.15;92.24;99545.69;5032849;28;19913;-70
2023/11/14 00:03:06;;;;;;;;;;;;;;;6.84;92.77;99544.34;5031048;28;19927;-70
2023/11/14 00:05:36;;;;;;;;;;;;;;;6.90;94.52;99547.03;5017417;28;19922;-70
2023/11/14 00:08:02;;;;;;;;;;;;;;;7.01;91.85;99552.06;5012730;28;19921;-70
2023/11/14 00:10:27;;;;;;;;;;;;;;;6.95;92.39;99558.03;5012938;28;19914;-70
2023/11/14 00:12:52;;;;;;;;;;;;;;;6.81;94.27;99560.81;5014961;28;20399;-70
2023/11/14 00:15:18;;;;;;;;;;;;;;;6.58;94.23;99567.06;5031946;28;20298;-70
2023/11/14 00:17:43;;;;;;;;;;;;;;;6.23;95.31;99563.78;5030782;28;19924;-70
2023/11/14 00:20:09;;;;;;;;;;;;;;;5.68;97.21;99573.50;5032472;28;20476;-70
2023/11/14 00:22:34;;;;;;;;;;;;;;;6.00;99.63;99571.09;5031384;28;19913;-70
2023/11/14 00:25:00;;;;;;;;;;;;;;;6.16;97.50;99574.47;5032380;28;20011;-70
2023/11/14 00:27:26;;;;;;;;;;;;;;;6.14;97.08;99585.03;5032074;28;19921;-70
2023/11/14 00:29:51;;;;;;;;;;;;;;;6.12;98.47;99581.75;5028189;28;20008;-70
2023/11/14 00:32:17;;;;;;;;;;;;;;;6.30;96.06;99591.19;5011816;28;20411;-70
2023/11/14 00:34:42;;;;;;;;;;;;;;;6.39;95.83;99592.13;5030584;28;19921;-70
2023/11/14 00:37:08;;;;;;;;;;;;;;;6.46;95.22;99587.03;5031186;28;19917;-70
2023/11/14 00:39:33;;;;;;;;;;;;;;;6.35;93.80;99587.50;5032167;28;19971;-70
2023/11/14 00:41:59;;;;;;;;;;;;;;;6.44;93.62;99583.69;5032001;28;19913;-70
2023/11/14 00:44:25;;;;;;;;;;;;;;;6.46;93.99;99581.47;5030707;28;19913;-70
2023/11/14 00:46:50;;;;;;;;;;;;;;;6.61;94.02;99579.53;5016337;28;20371;-70
2023/11/14 00:49:15;;;;;;;;;;;;;;;6.57;94.25;99573.75;5031730;28;19917;-70
2023/11/14 00:51:40;;;;;;;;;;;;;;;6.54;92.61;99567.97;5031973;28;19917;-70
2023/11/14 00:54:06;;;;;;;;;;;;;;;6.49;93.02;99568.09;5031880;28;19917;-70
2023/11/14 00:56:31;;;;;;;;;;;;;;;6.48;92.96;99561.69;5031613;28;19920;-70
2023/11/14 00:58:56;;;;;;;;;;;;;;;6.49;92.47;99568.91;5031866;28;19917;-70
2023/11/14 01:01:22;;;;;;;;;;;;;;;6.49;92.20;99566.13;5023019;28;20372;-70
2023/11/14 01:03:47;;;;;;;;;;;;;;;6.44;91.77;99575.38;5031317;28;20002;-70
2023/11/14 01:06:13;;;;;;;;;;;;;;;6.27;93.26;99575.13;5031807;28;20379;-70
2023/11/14 01:08:38;;;;;;;;;;;;;;;6.37;93.62;99574.13;5031818;28;19917;-70
2023/11/14 01:11:03;;;;;;;;;;;;;;;6.35;92.74;99574.44;5031775;28;19920;-70
2023/11/14 01:13:29;;;;;;;;;;;;;;;5.82;93.56;99570.78;5029532;28;20446;-70
2023/11/14 01:15:54;;;;;;;;;;;;;;;5.81;96.26;99571.91;5031565;28;20008;-70
2023/11/14 01:18:19;;;;;;;;;;;;;;;6.10;96.54;99579.28;5022021;28;19923;-70
2023/11/14 01:20:45;;;;;;;;;;;;;;;6.08;95.11;99581.53;5011933;28;19917;-70
2023/11/14 01:23:10;;;;;;;;;;;;;;;5.88;96.46;99582.63;5029236;28;19913;-70
2023/11/14 01:25:35;;;;;;;;;;;;;;;6.04;95.98;99586.03;5031662;28;19924;-70
2023/11/14 01:28:01;;;;;;;;;;;;;;;6.07;95.80;99590.97;5031233;28;19928;-70
2023/11/14 01:30:26;;;;;;;;;;;;;;;5.59;97.25;99589.97;5031604;28;19920;-70
2023/11/14 01:32:51;;;;;;;;;;;;;;;5.89;96.38;99589.84;5031208;28;20362;-70
2023/11/14 01:35:16;;;;;;;;;;;;;;;6.05;95.33;99590.47;5023168;28;20010;-70
2023/11/14 01:37:42;;;;;;;;;;;;;;;5.96;96.76;99581.13;5030663;28;20010;-70
2023/11/14 01:40:08;;;;;;;;;;;;;;;5.97;94.85;99569.72;5030210;28;20285;-70
2023/11/14 01:42:33;;;;;;;;;;;;;;;5.63;96.44;99573.56;5031393;28;19913;-70
2023/11/14 01:44:58;;;;;;;;;;;;;;;5.85;96.53;99572.13;5035203;28;20462;-70
2023/11/14 01:47:24;;;;;;;;;;;;;;;5.95;95.35;99574.75;5035374;28;20064;-70
2023/11/14 01:49:50;;;;;;;;;;;;;;;5.67;95.71;99519.13;5035303;28;19956;-70
2023/11/14 01:52:15;;;;;;;;;;;;;;;5.98;95.19;99560.28;5029666;28;20370;-70
2023/11/14 01:54:41;;;;;;;;;;;;;;;6.05;94.42;99559.91;5033853;28;19940;-70
2023/11/14 01:57:10;;;;;;;;;;;;;;;6.13;94.51;99553.69;5035213;28;19989;-70
2023/11/14 01:59:35;;;;;;;;;;;;;;;6.10;94.65;99559.84;5035124;28;19917;-70
2023/11/14 02:02:00;;;;;;;;;;;;;;;6.08;94.50;99553.75;5034089;28;20308;-70
2023/11/14 02:04:26;;;;;;;;;;;;;;;5.84;96.81;99554.66;5034745;28;20367;-70
2023/11/14 02:06:51;;;;;;;;;;;;;;;5.86;95.71;99548.81;5034960;28;19913;-70
2023/11/14 02:09:17;;;;;;;;;;;;;;;5.78;95.65;99549.47;5027247;28;19967;-70
2023/11/14 02:11:43;;;;;;;;;;;;;;;5.97;94.82;99538.34;5015235;28;19917;-70
2023/11/14 02:14:09;;;;;;;;;;;;;;;6.10;94.54;99537.63;5033882;28;20260;-70
2023/11/14 02:16:44;;;;;;;;;;;;;;;5.95;93.29;99535.06;5033729;28;19917;-70
2023/11/14 02:19:09;;;;;;;;;;;;;;;5.76;95.48;99542.28;5034720;28;19913;-70
2023/11/14 02:21:35;;;;;;;;;;;;;;;5.64;95.67;99535.53;5034763;28;19920;-70
2023/11/14 02:24:02;;;;;;;;;;;;;;;5.74;96.21;99541.75;5034558;28;19913;-70
2023/11/14 02:26:28;;;;;;;;;;;;;;;5.77;95.79;99534.78;5032194;28;20600;-70
2023/11/14 02:28:58;;;;;;;;;;;;;;;5.94;95.37;99539.81;5024393;28;19921;-70
2023/11/14 02:31:24;;;;;;;;;;;;;;;5.87;95.86;99540.19;5034593;28;19920;-70
2023/11/14 02:33:49;;;;;;;;;;;;;;;5.76;97.05;99535.91;5033902;28;19925;-70
2023/11/14 02:36:15;;;;;;;;;;;;;;;5.83;95.55;99538.31;5034457;28;19913;-70
2023/11/14 02:38:40;;;;;;;;;;;;;;;5.97;93.66;99544.75;5034282;28;19917;-70
2023/11/14 02:41:05;;;;;;;;;;;;;;;5.78;94.37;99547.53;5033675;28;19917;-70
2023/11/14 02:43:31;;;;;;;;;;;;;;;5.75;94.83;99545.38;5034220;28;19920;-70
2023/11/14 02:45:56;;;;;;;;;;;;;;;5.81;94.12;99551.66;5017681;28;19925;-70
2023/11/14 02:48:21;;;;;;;;;;;;;;;5.73;94.57;99540.09;5014251;28;19924;-70
2023/11/14 02:50:50;;;;;;;;;;;;;;;5.65;94.62;99542.75;5032107;28;20004;-70
2023/11/14 02:53:16;;;;;;;;;;;;;;;5.54;96.44;99545.66;5033810;28;19967;-70
2023/11/14 02:55:43;;;;;;;;;;;;;;;5.25;95.76;99537.47;5033352;28;20003;-70
2023/11/14 02:58:09;;;;;;;;;;;;;;;4.93;100.00;99528.72;5032975;28;20000;-70
2023/11/14 03:00:35;;;;;;;;;;;;;;;5.14;100.00;99523.72;5033980;28;19913;-70
2023/11/14 03:03:00;;;;;;;;;;;;;;;5.27;98.23;99529.66;5020361;28;20365;-70
2023/11/14 03:05:26;;;;;;;;;;;;;;;5.22;97.93;99527.78;5032803;28;19917;-70
2023/11/14 03:07:51;;;;;;;;;;;;;;;5.31;97.72;99539.06;5032617;28;19967;-70
2023/11/14 03:10:17;;;;;;;;;;;;;;;5.36;97.61;99541.75;5033787;28;19917;-70
2023/11/14 03:12:43;;;;;;;;;;;;;;;5.02;99.92;99559.38;5033648;28;19917;-70
2023/11/14 03:15:09;;;;;;;;;;;;;;;5.24;98.75;99552.47;5032623;28;19928;-70
2023/11/14 03:17:34;;;;;;;;;;;;;;;5.20;97.06;99553.06;5027655;28;19918;-70
2023/11/14 03:20:00;;;;;;;;;;;;;;;5.25;96.70;99568.81;5013744;28;20335;-70
2023/11/14 03:22:25;;;;;;;;;;;;;;;5.12;96.97;99555.63;5013836;28;19945;-70
2023/11/14 03:24:51;;;;;;;;;;;;;;;5.20;96.92;99555.00;5013678;28;19917;-70
2023/11/14 03:27:16;;;;;;;;;;;;;;;5.11;97.14;99552.06;5013481;28;19921;-70
2023/11/14 03:29:42;;;;;;;;;;;;;;;5.04;98.03;99543.25;5029700;28;19924;-70
2023/11/14 03:32:07;;;;;;;;;;;;;;;5.13;98.71;99535.94;5032855;28;20413;-70
2023/11/14 03:34:32;;;;;;;;;;;;;;;4.91;98.76;99542.84;5027619;28;20314;-70
2023/11/14 03:36:58;;;;;;;;;;;;;;;4.91;98.59;99551.19;5033355;28;20000;-70
2023/11/14 03:39:23;;;;;;;;;;;;;;;4.87;98.95;99563.97;5032298;28;19917;-70
2023/11/14 03:41:49;;;;;;;;;;;;;;;4.21;100.00;99571.81;5033291;28;19920;-70
2023/11/14 03:44:14;;;;;;;;;;;;;;;4.49;100.00;99572.13;5033047;28;19953;-70
2023/11/14 03:46:40;;;;;;;;;;;;;;;4.45;100.00;99566.34;5033103;28;19924;-70
2023/11/14 03:49:05;;;;;;;;;;;;;;;4.52;100.00;99579.03;5023080;28;20400;-70
2023/11/14 03:51:30;;;;;;;;;;;;;;;4.62;100.00;99574.22;5015521;28;20008;-70
2023/11/14 03:53:56;;;;;;;;;;;;;;;4.80;100.00;99593.16;5031761;28;19921;-70
2023/11/14 03:56:21;;;;;;;;;;;;;;;4.84;100.00;99597.84;5032881;28;19913;-70
2023/11/14 03:58:49;;;;;;;;;;;;;;;4.84;100.00;99588.69;5031702;28;20020;-70
2023/11/14 04:01:14;;;;;;;;;;;;;;;4.70;100.00;99597.69;5031486;28;20303;-70
2023/11/14 04:03:39;;;;;;;;;;;;;;;4.32;100.00;99597.50;5031931;28;19917;-70
2023/11/14 04:06:05;;;;;;;;;;;;;;;4.58;100.00;99606.38;5027294;28;19919;-70
2023/11/14 04:08:30;;;;;;;;;;;;;;;4.51;100.00;99617.00;5027550;28;19956;-70
2023/11/14 04:10:55;;;;;;;;;;;;;;;4.63;100.00;99611.91;5012906;28;19996;-70
2023/11/14 04:13:21;;;;;;;;;;;;;;;4.48;100.00;99612.03;5012852;28;20293;-70
2023/11/14 04:15:47;;;;;;;;;;;;;;;4.31;100.00;99612.47;5030458;28;19923;-70
2023/11/14 04:18:13;;;;;;;;;;;;;;;4.27;100.00;99620.50;5031602;28;19941;-70
2023/11/14 04:20:38;;;;;;;;;;;;;;;4.11;100.00;99621.75;5031083;28;20054;-70
2023/11/14 04:23:03;;;;;;;;;;;;;;;4.37;100.00;99621.56;5014414;28;19914;-70
2023/11/14 04:25:29;;;;;;;;;;;;;;;4.42;100.00;99615.97;5012506;28;20382;-70
2023/11/14 04:27:54;;;;;;;;;;;;;;;4.48;99.56;99614.81;5028343;28;19928;-70
2023/11/14 04:30:19;;;;;;;;;;;;;;;4.46;100.00;99614.25;5030915;28;19921;-70
2023/11/14 04:32:45;;;;;;;;;;;;;;;4.48;99.47;99609.28;5032409;28;19913;-70
2023/11/14 04:35:11;;;;;;;;;;;;;;;4.59;99.15;99608.06;5030408;28;19975;-70
2023/11/14 04:37:36;;;;;;;;;;;;;;;4.56;98.72;99594.78;5027643;28;19925;-70
2023/11/14 04:40:05;;;;;;;;;;;;;;;4.62;98.69;99601.94;5027579;28;19964;-70
2023/11/14 04:42:30;;;;;;;;;;;;;;;4.61;99.09;99589.19;5026916;28;20086;-71
2023/11/14 04:44:55;;;;;;;;;;;;;;;4.71;97.95;99582.72;5031857;28;20016;-70
2023/11/14 04:47:21;;;;;;;;;;;;;;;4.73;97.95;99574.94;5024729;28;19913;-70
2023/11/14 04:49:46;;;;;;;;;;;;;;;4.76;97.76;99576.28;5026731;28;19924;-70
2023/11/14 04:52:11;;;;;;;;;;;;;;;4.47;98.96;99568.84;5031098;28;20461;-70
2023/11/14 04:54:36;;;;;;;;;;;;;;;4.66;98.61;99568.09;5021080;28;19968;-70
2023/11/14 04:57:02;;;;;;;;;;;;;;;4.58;99.55;99566.78;5012189;28;19953;-70
2023/11/14 04:59:27;;;;;;;;;;;;;;;4.64;98.92;99577.53;5012160;28;19913;-70
2023/11/14 05:01:52;;;;;;;;;;;;;;;4.15;100.00;99586.84;5027648;28;19917;-70
2023/11/14 05:04:18;;;;;;;;;;;;;;;4.40;100.00;99593.28;5030797;28;19975;-70
2023/11/14 05:06:43;;;;;;;;;;;;;;;4.50;100.00;99595.94;5030635;28;20388;-70
2023/11/14 05:09:09;;;;;;;;;;;;;;;4.49;99.97;99586.00;5031394;28;19920;-70
2023/11/14 05:11:37;;;;;;;;;;;;;;;4.43;99.58;99590.75;5029399;28;19971;-70
2023/11/14 05:14:05;;;;;;;;;;;;;;;4.11;100.00;99596.84;5012364;28;19965;-70
2023/11/14 05:16:36;;;;;;;;;;;;;;;3.73;100.00;99602.91;5031739;28;19917;-70
2023/11/14 05:19:02;;;;;;;;;;;;;;;3.70;100.00;99603.47;5035001;28;19917;-70
2023/11/14 05:21:27;;;;;;;;;;;;;;;3.75;100.00;99600.66;5037268;28;20285;-70
2023/11/14 05:23:52;;;;;;;;;;;;;;;3.87;100.00;99598.38;5036933;28;19967;-70
2023/11/14 05:26:18;;;;;;;;;;;;;;;3.91;100.00;99606.94;5038127;28;19959;-70
2023/11/14 05:28:43;;;;;;;;;;;;;;;4.08;100.00;99599.06;5037156;28;20004;-70
2023/11/14 05:31:08;;;;;;;;;;;;;;;4.08;100.00;99601.81;5026920;28;19923;-70
2023/11/14 05:33:33;;;;;;;;;;;;;;;4.26;100.00;99598.63;5037723;28;20380;-70
2023/11/14 05:35:59;;;;;;;;;;;;;;;4.40;100.00;99596.03;5037714;28;19960;-70
2023/11/14 05:38:24;;;;;;;;;;;;;;;4.41;100.00;99603.22;5038107;28;20296;-70
2023/11/14 05:40:49;;;;;;;;;;;;;;;4.40;100.00;99607.94;5045552;28;19927;-70
2023/11/14 05:43:14;;;;;;;;;;;;;;;4.27;100.00;99595.59;5041790;28;19917;-70
2023/11/14 05:45:41;;;;;;;;;;;;;;;4.46;100.00;99609.56;5034530;28;19917;-72
2023/11/14 05:48:06;;;;;;;;;;;;;;;4.64;100.00;99608.00;5018381;28;19953;-70
2023/11/14 05:50:31;;;;;;;;;;;;;;;4.84;100.00;99614.47;5018151;28;19913;-70
2023/11/14 05:52:56;;;;;;;;;;;;;;;5.03;99.68;99613.69;5018156;28;20347;-70
2023/11/14 05:55:22;;;;;;;;;;;;;;;4.98;99.95;99619.31;5025755;28;19924;-71
2023/11/14 05:57:47;;;;;;;;;;;;;;;4.87;99.44;99626.91;5037986;28;19917;-72
2023/11/14 06:00:15;;;;;;;;;;;;;;;4.57;99.94;99626.91;5037953;28;19996;-69
2023/11/14 06:02:40;;;;;;;;;;;;;;;4.53;100.00;99628.59;5029201;28;19923;-72
2023/11/14 06:05:06;;;;;;;;;;;;;;;4.60;100.00;99636.56;5018330;28;19921;-71
2023/11/14 06:07:31;;;;;;;;;;;;;;;4.88;100.00;99632.16;5030634;28;19925;-72
2023/11/14 06:09:56;;;;;;;;;;;;;;;5.13;99.24;99643.25;5021878;28;19921;-72
2023/11/14 06:12:22;;;;;;;;;;;;;;;5.19;98.72;99636.53;5034148;28;19917;-73
2023/11/14 06:14:47;;;;;;;;;;;;;;;5.09;100.00;99631.94;5034242;28;19921;-73
2023/11/14 06:17:12;;;;;;;;;;;;;;;5.23;100.00;99631.25;5031936;28;19921;-72
2023/11/14 06:19:38;;;;;;;;;;;;;;;4.98;99.42;99627.63;5031312;28;20399;-72
2023/11/14 06:22:04;;;;;;;;;;;;;;;5.17;100.00;99633.25;5023444;28;19994;-72
2023/11/14 06:24:29;;;;;;;;;;;;;;;5.30;100.00;99632.53;5029913;28;19917;-73
2023/11/14 06:26:54;;;;;;;;;;;;;;;5.48;100.00;99642.00;5046468;28;19927;-72
2023/11/14 06:29:20;;;;;;;;;;;;;;;5.56;99.86;99645.28;5041229;28;20449;-74
2023/11/14 06:31:45;;;;;;;;;;;;;;;5.72;99.05;99649.47;5028686;28;19925;-73
2023/11/14 06:34:12;;;;;;;;;;;;;;;5.56;98.40;99645.28;5025432;28;19929;-74
2023/11/14 06:36:37;;;;;;;;;;;;;;;5.64;99.47;99639.03;5029640;28;20458;-74
2023/11/14 06:39:02;;;;;;;;;;;;;;;5.99;97.89;99644.41;5031518;28;19921;-73
2023/11/14 06:41:27;;;;;;;;;;;;;;;6.29;97.07;99647.88;5031613;28;19924;-73
2023/11/14 06:43:53;;;;;;;;;;;;;;;6.22;95.25;99651.03;5031523;28;20315;-73
2023/11/14 06:46:19;;;;;;;;;;;;;;;6.44;94.37;99647.63;5031754;28;19959;-73
2023/11/14 06:48:44;;;;;;;;;;;;;;;6.41;94.09;99636.31;5029487;28;20082;-70
2023/11/14 06:51:10;;;;;;;;;;;;;;;6.43;94.92;99634.03;5028494;28;19924;-72
2023/11/14 06:53:36;;;;;;;;;;;;;;;6.21;96.50;99631.88;5029805;28;20008;-73
2023/11/14 06:56:02;;;;;;;;;;;;;;;5.97;99.31;99622.47;5030806;28;19929;-72
2023/11/14 06:58:27;;;;;;;;;;;;;;;5.82;100.00;99625.50;5030372;28;19921;-74
2023/11/14 07:00:52;;;;;;;;;;;;;;;5.96;100.00;99631.09;5026465;28;19920;-76
2023/11/14 07:03:18;;;;;;;;;;;;;;;6.30;100.00;99627.28;5029331;28;20350;-72
2023/11/14 07:05:43;;;;;;;;;;;;;;;6.64;100.00;99630.91;5027007;28;19968;-73
2023/11/14 07:08:10;;;;;;;;;;;;;;;6.92;98.05;99634.56;5027388;28;19921;-72
2023/11/14 07:10:35;;;;;;;;;;;;;;;7.08;96.82;99637.06;5029106;28;20384;-72
2023/11/14 07:13:02;;;;;;;;;;;;;;;7.16;96.39;99631.63;5033801;28;19931;-72
2023/11/14 07:15:27;;;;;;;;;;;;;;;7.36;95.17;99625.94;5030518;28;20387;-74
2023/11/14 07:17:52;;;;;;;;;;;;;;;6.98;97.93;99632.50;5024775;28;19925;-73
2023/11/14 07:20:20;;;;;;;;;;;;;;;7.17;97.57;99626.88;5032412;28;20343;-73
2023/11/14 07:22:46;;;;;;;;;;;;;;;7.48;95.93;99625.41;5022769;28;19952;-75
2023/11/14 07:25:11;;;;;;;;;;;;;;;7.73;94.43;99624.88;5026658;28;19925;-74
2023/11/14 07:27:41;;;;;;;;;;;;;;;7.89;93.72;99634.84;5030396;28;19921;-73
2023/11/14 07:30:07;;;;;;;;;;;;;;;8.06;94.00;99623.88;5030512;28;19924;-73
2023/11/14 07:32:32;;;;;;;;;;;;;;;8.31;92.47;99609.63;5028426;28;20374;-74
2023/11/14 07:34:58;;;;;;;;;;;;;;;8.49;90.91;99608.63;5029048;28;19964;-73
2023/11/14 07:37:23;;;;;;;;;;;;;;;8.68;89.74;99596.47;5019657;28;19921;-73
2023/11/14 07:39:48;;;;;;;;;;;;;;;8.59;87.86;99592.81;5030362;28;19927;-72
2023/11/14 07:42:13;;;;;;;;;;;;;;;8.87;87.44;99578.69;5028936;28;19924;-74
2023/11/14 07:44:39;;;;;;;;;;;;;;;8.76;88.08;99584.53;5028096;28;19921;-74
2023/11/14 07:47:04;;;;;;;;;;;;;;;8.66;88.11;99595.97;5029637;28;19988;-72
2023/11/14 07:49:30;;;;;;;;;;;;;;;8.93;87.58;99602.50;5029357;28;20411;-73
2023/11/14 07:51:55;;;;;;;;;;;;;;;8.93;87.35;99608.06;5028405;28;19921;-73
2023/11/14 07:54:20;;;;;;;;;;;;;;;8.91;87.64;99604.78;5029475;28;19929;-75
2023/11/14 07:56:46;;;;;;;;;;;;;;;8.91;89.33;99600.03;5029633;28;19943;-75
2023/11/14 07:59:13;;;;;;;;;;;;;;;8.84;88.85;99582.94;5025236;28;20446;-76
2023/11/14 08:01:39;;;;;;;;;;;;;;;8.92;87.13;99571.00;5043279;28;20478;-76
2023/11/14 08:04:05;;;;;;;;;;;;;;;8.95;86.80;99580.72;5028183;28;19967;-76
2023/11/14 08:06:31;;;;;;;;;;;;;;;8.65;86.28;99584.00;5025325;28;19925;-78
2023/11/14 08:08:56;;;;;;;;;;;;;;;9.02;85.87;99580.25;5019896;28;19917;-74
2023/11/14 08:11:21;;;;;;;;;;;;;;;9.21;84.37;99588.34;5022603;28;20000;-73
2023/11/14 08:13:47;;;;;;;;;;;;;;;9.41;85.52;99587.75;5018527;28;20375;-73
2023/11/14 08:16:12;;;;;;;;;;;;;;;9.38;85.61;99582.81;5033015;28;19960;-74
2023/11/14 08:18:38;;;;;;;;;;;;;;;9.12;85.64;99582.75;5032338;28;19924;-73
2023/11/14 08:21:03;;;;;;;;;;;;;;;9.20;86.57;99581.13;5031234;28;20390;-74
2023/11/14 08:23:29;;;;;;;;;;;;;;;9.53;86.98;99587.13;5027179;28;20024;-74
2023/11/14 08:25:55;;;;;;;;;;;;;;;9.96;85.39;99587.53;5026458;28;20012;-75
2023/11/14 08:28:20;;;;;;;;;;;;;;;10.38;85.22;99587.00;5028503;28;20183;-74
2023/11/14 08:30:48;;;;;;;;;;;;;;;10.48;83.03;99585.88;5028524;28;20657;-74
2023/11/14 08:33:13;;;;;;;;;;;;;;;10.41;82.54;99580.78;5030817;28;19917;-74
2023/11/14 08:35:38;;;;;;;;;;;;;;;10.76;82.02;99574.28;5023336;28;19939;-74
2023/11/14 08:38:04;;;;;;;;;;;;;;;10.99;77.73;99576.84;5029282;28;20284;-74
2023/11/14 08:40:29;;;;;;;;;;;;;;;11.05;78.49;99565.13;5029512;28;19975;-74
2023/11/14 08:42:54;;;;;;;;;;;;;;;11.15;78.91;99561.09;5028848;28;19924;-74
2023/11/14 08:45:20;;;;;;;;;;;;;;;11.26;79.13;99553.16;5027890;28;19921;-74
2023/11/14 08:47:46;;;;;;;;;;;;;;;11.21;78.09;99556.13;5029646;28;19974;-74
2023/11/14 08:50:12;;;;;;;;;;;;;;;11.37;75.47;99548.81;5028641;28;19921;-74
2023/11/14 08:52:38;;;;;;;;;;;;;;;11.45;75.38;99552.72;5027383;28;19917;-74
2023/11/14 08:55:03;;;;;;;;;;;;;;;11.56;78.31;99553.13;5024996;28;19999;-74
2023/11/14 08:57:29;;;;;;;;;;;;;;;11.58;79.04;99556.41;5029970;28;19995;-74
2023/11/14 08:59:55;;;;;;;;;;;;;;;11.69;78.39;99556.03;5027589;28;19967;-74
2023/11/14 09:02:20;;;;;;;;;;;;;;;11.77;76.89;99552.34;5026292;28;20379;-74
2023/11/14 09:04:45;;;;;;;;;;;;;;;11.83;76.55;99555.75;5027613;28;20015;-74
2023/11/14 09:07:11;;;;;;;;;;;;;;;12.03;75.42;99546.56;5030024;28;19971;-74
2023/11/14 09:09:36;;;;;;;;;;;;;;;12.11;75.49;99546.81;5028744;28;19917;-74
2023/11/14 09:12:01;;;;;;;;;;;;;;;12.14;75.68;99535.75;5028542;28;19960;-74
2023/11/14 09:14:27;;;;;;;;;;;;;;;12.16;75.85;99543.81;5028410;28;19927;-74
2023/11/14 09:16:53;;;;;;;;;;;;;;;12.28;76.76;99526.22;5026904;28;19924;-74
2023/11/14 09:19:18;;;;;;;;;;;;;;;12.43;74.39;99533.16;5028904;28;20296;-74
2023/11/14 09:21:44;;;;;;;;;;;;;;;12.37;74.03;99524.13;5029763;28;19924;-74
2023/11/14 09:24:09;;;;;;;;;;;;;;;12.53;73.90;99520.66;5028945;28;19917;-74
2023/11/14 09:26:34;;;;;;;;;;;;;;;12.54;73.51;99513.88;5028302;28;20406;-74
2023/11/14 09:28:59;;;;;;;;;;;;;;;12.55;73.19;99493.91;5029871;28;19921;-74
2023/11/14 09:31:25;;;;;;;;;;;;;;;12.69;72.81;99493.59;5028654;28;19921;-73
2023/11/14 09:33:51;;;;;;;;;;;;;;;12.89;71.42;99496.63;5024696;28;19928;-73
2023/11/14 09:36:16;;;;;;;;;;;;;;;12.90;71.93;99485.06;5028666;28;19937;-73
2023/11/14 09:38:41;;;;;;;;;;;;;;;13.10;70.27;99490.09;5028757;28;19925;-73
2023/11/14 09:41:11;;;;;;;;;;;;;;;13.17;69.31;99473.47;5028745;28;19925;-73
2023/11/14 09:43:37;;;;;;;;;;;;;;;13.34;67.78;99470.41;5028769;28;19924;-73
2023/11/14 09:46:04;;;;;;;;;;;;;;;13.29;68.57;99467.00;5023477;28;20023;-72
2023/11/14 09:48:30;;;;;;;;;;;;;;;13.25;68.38;99466.91;5029589;28;19921;-72
2023/11/14 09:50:55;;;;;;;;;;;;;;;13.27;70.41;99458.13;5028877;28;19919;-73
2023/11/14 09:53:23;;;;;;;;;;;;;;;13.37;70.72;99459.63;5027202;28;19920;-71
2023/11/14 09:55:49;;;;;;;;;;;;;;;13.52;69.43;99453.31;5030694;28;20030;-71
2023/11/14 09:58:14;;;;;;;;;;;;;;;13.54;68.28;99456.59;5029978;28;19913;-71
2023/11/14 10:00:39;;;;;;;;;;;;;;;13.56;68.61;99459.84;5029873;28;19921;-70
2023/11/14 10:03:05;;;;;;;;;;;;;;;13.33;68.44;99446.28;5026106;28;20004;-70
2023/11/14 10:05:30;;;;;;;;;;;;;;;13.45;67.91;99441.84;5020507;28;19925;-70
2023/11/14 10:07:56;;;;;;;;;;;;;;;13.60;67.49;99440.28;5030422;28;19924;-72
2023/11/14 10:10:21;;;;;;;;;;;;;;;13.79;66.22;99448.06;5031829;28;19925;-71
2023/11/14 10:12:47;;;;;;;;;;;;;;;13.92;65.63;99436.78;5031991;28;19925;-71
2023/11/14 10:15:12;;;;;;;;;;;;;;;13.96;65.60;99437.69;5031268;28;19925;-70
2023/11/14 10:17:48;;;;;;;;;;;;;;;13.87;64.86;99443.47;5031844;28;20419;-70
2023/11/14 10:20:14;;;;;;;;;;;;;;;13.80;66.23;99438.47;5033886;28;20388;-70
2023/11/14 10:22:49;;;;;;;;;;;;;;;13.88;65.40;99428.22;5033950;28;19920;-70
2023/11/14 10:25:27;;;;;;;;;;;;;;;14.13;65.82;99428.09;5034022;28;19924;-70
2023/11/14 10:28:00;;;;;;;;;;;;;;;14.21;64.98;99423.47;5033471;28;20357;-70
2023/11/14 10:30:43;;;;;;;;;;;;;;;14.20;65.20;99419.03;5029394;28;19990;-70
2023/11/14 10:33:09;;;;;;;;;;;;;;;14.16;64.03;99422.56;5043138;28;19917;-70
2023/11/14 10:35:34;;;;;;;;;;;;;;;14.09;64.63;99425.19;5031659;28;19928;-70
2023/11/14 10:38:14;;;;;;;;;;;;;;;14.13;65.57;99406.44;5033967;28;19967;-70
2023/11/14 10:40:49;;;;;;;;;;;;;;;14.31;64.62;99392.84;5028968;28;20327;-69
2023/11/14 10:43:31;;;;;;;;;;;;;;;14.37;62.74;99386.91;5029175;28;19921;-69
2023/11/14 10:45:59;;;;;;;;;;;;;;;14.46;62.19;99374.28;5033948;28;20071;-69
2023/11/14 10:48:24;;;;;;;;;;;;;;;14.66;60.87;99380.00;5032587;28;19917;-69
2023/11/14 10:50:51;;;;;;;;;;;;;;;14.89;59.01;99385.00;5031674;28;21680;-71
2023/11/14 10:53:16;;;;;;;;;;;;;;;14.95;59.25;99380.69;5033273;28;20012;-71
2023/11/14 10:55:42;;;;;;;;;;;;;;;14.98;60.15;99381.97;5032944;28;20055;-69
2023/11/14 10:58:09;;;;;;;;;;;;;;;15.10;60.35;99378.22;5033767;28;20051;-70
2023/11/14 11:00:34;;;;;;;;;;;;;;;15.19;59.17;99372.38;5034025;28;20446;-72
2023/11/14 11:03:00;;;;;;;;;;;;;;;15.20;57.36;99357.91;5032016;28;19921;-70
2023/11/14 11:05:31;;;;;;;;;;;;;;;15.42;57.60;99364.00;5033728;28;19991;-69
2023/11/14 11:07:57;;;;;;;;;;;;;;;15.44;58.11;99370.09;5032815;28;20394;-70
2023/11/14 11:10:23;;;;;;;;;;;;;;;15.41;56.92;99360.38;5032421;28;19917;-72
2023/11/14 11:12:49;;;;;;;;;;;;;;;15.32;57.34;99364.59;5048048;28;19927;-69
2023/11/14 11:15:14;;;;;;;;;;;;;;;15.47;56.76;99343.16;5030348;28;19921;-68
2023/11/14 11:17:44;;;;;;;;;;;;;;;15.47;58.59;99343.16;5027533;28;19952;-69
2023/11/14 11:20:21;;;;;;;;;;;;;;;15.53;59.13;99334.03;5019876;28;19991;-68
2023/11/14 11:23:03;;;;;;;;;;;;;;;15.50;58.80;99328.31;5024587;28;19917;-68
2023/11/14 11:25:29;;;;;;;;;;;;;;;15.66;58.12;99311.31;5030209;28;19921;-68
2023/11/14 11:27:55;;;;;;;;;;;;;;;15.64;57.75;99311.72;5017638;28;19991;-68
2023/11/14 11:30:20;;;;;;;;;;;;;;;15.61;59.35;99306.00;5026128;28;19921;-68
2023/11/14 11:32:48;;;;;;;;;;;;;;;15.57;58.51;99301.13;5029029;28;19924;-68
2023/11/14 11:35:16;;;;;;;;;;;;;;;15.71;58.74;99311.03;5032895;28;19956;-68
2023/11/14 11:37:54;;;;;;;;;;;;;;;15.73;59.65;99298.19;5023208;28;19932;-68
2023/11/14 11:40:24;;;;;;;;;;;;;;;15.73;56.59;99309.44;5010639;28;19918;-68
2023/11/14 11:42:50;;;;;;;;;;;;;;;15.75;56.98;99313.91;5020439;28;19921;-68
2023/11/14 11:45:30;;;;;;;;;;;;;;;15.97;55.43;99301.06;5030174;28;19917;-68
2023/11/14 11:47:57;;;;;;;;;;;;;;;15.91;54.71;99288.44;5031531;28;20008;-69
2023/11/14 11:50:28;;;;;;;;;;;;;;;15.89;55.90;99279.53;5026433;28;19921;-69
2023/11/14 11:52:57;;;;;;;;;;;;;;;15.96;56.00;99272.03;5026168;28;19961;-68
2023/11/14 11:55:22;;;;;;;;;;;;;;;15.78;56.86;99266.03;5031843;28;20023;-68
2023/11/14 11:57:48;;;;;;;;;;;;;;;15.97;57.49;99267.22;5031402;28;20023;-68
2023/11/14 12:00:17;;;;;;;;;;;;;;;15.85;56.64;99265.34;5032675;28;19991;-68
2023/11/14 12:02:42;;;;;;;;;;;;;;;15.92;57.39;99264.69;5031102;28;20003;-68
2023/11/14 12:05:10;;;;;;;;;;;;;;;15.97;57.74;99261.56;5029157;28;20003;-68
2023/11/14 12:07:35;;;;;;;;;;;;;;;16.04;58.17;99250.38;5031394;28;19917;-68
2023/11/14 12:10:01;;;;;;;;;;;;;;;16.07;58.08;99249.66;5032186;28;19971;-68
2023/11/14 12:12:34;;;;;;;;;;;;;;;16.18;57.44;99254.66;5031401;28;19924;-68
2023/11/14 12:15:00;;;;;;;;;;;;;;;16.21;56.34;99251.88;5030512;28;19968;-68
2023/11/14 12:17:26;;;;;;;;;;;;;;;16.37;56.16;99265.03;5035148;28;19948;-68
2023/11/14 12:19:51;;;;;;;;;;;;;;;16.20;55.15;99274.84;5029473;28;19921;-68
2023/11/14 12:22:16;;;;;;;;;;;;;;;16.24;55.67;99273.72;5030199;28;19948;-69
2023/11/14 12:24:43;;;;;;;;;;;;;;;16.22;55.42;99276.06;5030416;28;20004;-68
2023/11/14 12:27:08;;;;;;;;;;;;;;;16.31;55.18;99273.00;5031467;28;20381;-68
2023/11/14 12:29:34;;;;;;;;;;;;;;;16.24;55.44;99270.88;5026754;28;19917;-69
2023/11/14 12:31:59;;;;;;;;;;;;;;;16.13;54.88;99264.25;5031693;28;19917;-69
2023/11/14 12:34:25;;;;;;;;;;;;;;;16.12;54.62;99268.28;5031764;28;20001;-69
2023/11/14 12:36:50;;;;;;;;;;;;;;;16.06;55.04;99270.59;5030734;28;19917;-69
2023/11/14 12:39:16;;;;;;;;;;;;;;;16.12;54.48;99269.06;5031589;28;19921;-71
2023/11/14 12:41:42;;;;;;;;;;;;;;;15.89;54.39;99274.69;5029616;28;19917;-69
2023/11/14 12:44:08;;;;;;;;;;;;;;;16.11;53.53;99290.00;5030323;28;20384;-69
2023/11/14 12:46:35;;;;;;;;;;;;;;;16.26;52.85;99276.13;5029800;28;19928;-69